sensor_id;sensor_type;location;lat;lon;timestamp;pressure;altitude;pressure_sealevel;temperature;humidity
61537;BME280;48695;53.480;-6.300;2023-02-04T00:01:37;102750.06;;;12.12;66.78
61537;BME280;48695;53.480;-6.300;2023-02-04T00:04:03;102744.81;;;12.15;66.66
61537;BME280;48695;53.480;-6.300;2023-02-04T00:06:28;102753.56;;;12.15;66.41
61537;BME280;48695;53.480;-6.300;2023-02-04T00:08:54;102755.31;;;12.15;66.82
61537;BME280;48695;53.480;-6.300;2023-02-04T00:11:19;102744.78;;;12.04;66.95
61537;BME280;48695;53.480;-6.300;2023-02-04T00:13:45;102753.56;;;12.12;66.64
61537;BME280;48695;53.480;-6.300;2023-02-04T00:16:10;102752.66;;;12.09;66.86
61537;BME280;48695;53.480;-6.300;2023-02-04T00:18:36;102751.78;;;12.10;66.54
61537;BME280;48695;53.480;-6.300;2023-02-04T00:21:01;102750.94;;;12.12;66.59
61537;BME280;48695;53.480;-6.300;2023-02-04T00:23:27;102745.69;;;12.11;66.72
61537;BME280;48695;53.480;-6.300;2023-02-04T00:25:52;102734.28;;;12.00;66.45
61537;BME280;48695;53.480;-6.300;2023-02-04T00:28:18;102746.56;;;12.10;66.44
61537;BME280;48695;53.480;-6.300;2023-02-04T00:30:43;102743.94;;;12.02;65.99
61537;BME280;48695;53.480;-6.300;2023-02-04T00:33:09;102742.16;;;12.04;66.08
61537;BME280;48695;53.480;-6.300;2023-02-04T00:35:34;102752.66;;;12.10;65.72
61537;BME280;48695;53.480;-6.300;2023-02-04T00:38:02;102748.31;;;12.09;65.90
61537;BME280;48695;53.480;-6.300;2023-02-04T00:40:27;102747.44;;;12.09;65.96
61537;BME280;48695;53.480;-6.300;2023-02-04T00:42:53;102755.28;;;12.09;65.81
61537;BME280;48695;53.480;-6.300;2023-02-04T00:45:18;102732.56;;;11.97;65.20
61537;BME280;48695;53.480;-6.300;2023-02-04T00:47:44;102749.19;;;12.08;65.34
61537;BME280;48695;53.480;-6.300;2023-02-04T00:50:09;102743.91;;;12.04;64.94
61537;BME280;48695;53.480;-6.300;2023-02-04T00:52:34;102748.31;;;12.08;65.16
61537;BME280;48695;53.480;-6.300;2023-02-04T00:55:00;102750.91;;;12.09;64.70
61537;BME280;48695;53.480;-6.300;2023-02-04T00:57:25;102727.31;;;11.99;64.87
61537;BME280;48695;53.480;-6.300;2023-02-04T00:59:51;102674.78;;;11.65;64.39
61537;BME280;48695;53.480;-6.300;2023-02-04T01:02:16;102752.66;;;12.10;64.28
61537;BME280;48695;53.480;-6.300;2023-02-04T01:04:41;102745.69;;;12.11;64.56
61537;BME280;48695;53.480;-6.300;2023-02-04T01:07:07;102699.28;;;11.79;64.17
61537;BME280;48695;53.480;-6.300;2023-02-04T01:09:32;102750.06;;;12.09;64.56
61537;BME280;48695;53.480;-6.300;2023-02-04T01:11:58;102751.78;;;12.10;64.58
61537;BME280;48695;53.480;-6.300;2023-02-04T01:14:23;102750.94;;;12.12;64.25
61537;BME280;48695;53.480;-6.300;2023-02-04T01:16:49;102753.56;;;12.15;64.10
61537;BME280;48695;53.480;-6.300;2023-02-04T01:19:14;102761.41;;;12.15;63.90
61537;BME280;48695;53.480;-6.300;2023-02-04T01:21:39;102763.16;;;12.16;64.17
61537;BME280;48695;53.480;-6.300;2023-02-04T01:24:05;102752.69;;;12.15;64.45
61537;BME280;48695;53.480;-6.300;2023-02-04T01:26:30;102759.69;;;12.19;64.58
61537;BME280;48695;53.480;-6.300;2023-02-04T01:28:56;102740.41;;;12.06;64.17
61537;BME280;48695;53.480;-6.300;2023-02-04T01:31:21;102767.56;;;12.17;64.31
61537;BME280;48695;53.480;-6.300;2023-02-04T01:33:46;102763.16;;;12.16;64.35
61537;BME280;48695;53.480;-6.300;2023-02-04T01:36:12;102761.41;;;12.15;63.93
61537;BME280;48695;53.480;-6.300;2023-02-04T01:38:37;102757.06;;;12.14;63.91
61537;BME280;48695;53.480;-6.300;2023-02-04T01:41:03;102696.66;;;11.81;64.04
61537;BME280;48695;53.480;-6.300;2023-02-04T01:43:30;102760.53;;;12.16;63.99
61537;BME280;48695;53.480;-6.300;2023-02-04T01:45:56;102763.16;;;12.16;63.65
61537;BME280;48695;53.480;-6.300;2023-02-04T01:48:22;102766.66;;;12.15;64.00
61537;BME280;48695;53.480;-6.300;2023-02-04T01:50:49;102747.41;;;12.04;64.00
61537;BME280;48695;53.480;-6.300;2023-02-04T01:53:18;102759.69;;;12.17;64.00
61537;BME280;48695;53.480;-6.300;2023-02-04T01:55:45;102764.91;;;12.14;63.84
61537;BME280;48695;53.480;-6.300;2023-02-04T01:58:11;102756.16;;;12.09;63.95
61537;BME280;48695;53.480;-6.300;2023-02-04T02:00:37;102752.66;;;12.07;64.03
61537;BME280;48695;53.480;-6.300;2023-02-04T02:03:04;102760.53;;;12.15;63.88
61537;BME280;48695;53.480;-6.300;2023-02-04T02:05:43;102759.69;;;12.17;64.07
61537;BME280;48695;53.480;-6.300;2023-02-04T02:08:11;102764.91;;;12.14;63.76
61537;BME280;48695;53.480;-6.300;2023-02-04T02:10:38;102760.53;;;12.16;63.47
61537;BME280;48695;53.480;-6.300;2023-02-04T02:13:06;102766.66;;;12.15;63.48
61537;BME280;48695;53.480;-6.300;2023-02-04T02:15:32;102763.19;;;12.19;64.05
61537;BME280;48695;53.480;-6.300;2023-02-04T02:17:58;102743.94;;;12.02;63.29
61537;BME280;48695;53.480;-6.300;2023-02-04T02:20:24;102759.66;;;12.14;63.46
61537;BME280;48695;53.480;-6.300;2023-02-04T02:22:58;102763.16;;;12.13;63.32
61537;BME280;48695;53.480;-6.300;2023-02-04T02:25:25;102769.28;;;12.12;63.43
61537;BME280;48695;53.480;-6.300;2023-02-04T02:27:51;102769.22;;;12.06;63.46
61537;BME280;48695;53.480;-6.300;2023-02-04T02:30:17;102774.50;;;12.09;63.26
61537;BME280;48695;53.480;-6.300;2023-02-04T02:32:47;102777.13;;;12.12;63.10
61537;BME280;48695;53.480;-6.300;2023-02-04T02:35:14;102728.97;;;11.81;63.11
61537;BME280;48695;53.480;-6.300;2023-02-04T02:37:39;102769.22;;;12.05;63.32
61537;BME280;48695;53.480;-6.300;2023-02-04T02:40:06;102777.09;;;12.09;63.08
61537;BME280;48695;53.480;-6.300;2023-02-04T02:42:32;102774.50;;;12.11;63.15
61537;BME280;48695;53.480;-6.300;2023-02-04T02:44:58;102771.03;;;12.12;63.06
61537;BME280;48695;53.480;-6.300;2023-02-04T02:47:24;102770.09;;;12.05;63.05
61537;BME280;48695;53.480;-6.300;2023-02-04T02:49:52;102774.50;;;12.14;63.20
61537;BME280;48695;53.480;-6.300;2023-02-04T02:52:19;102769.22;;;12.06;62.96
61537;BME280;48695;53.480;-6.300;2023-02-04T02:54:44;102772.75;;;12.10;62.67
61537;BME280;48695;53.480;-6.300;2023-02-04T02:57:21;102774.50;;;12.11;63.20
61537;BME280;48695;53.480;-6.300;2023-02-04T02:59:47;102766.63;;;12.03;62.46
61537;BME280;48695;53.480;-6.300;2023-02-04T03:02:15;102774.47;;;12.05;62.28
61537;BME280;48695;53.480;-6.300;2023-02-04T03:04:45;102771.88;;;12.09;62.28
61537;BME280;48695;53.480;-6.300;2023-02-04T03:07:12;102749.13;;;11.99;63.06
61537;BME280;48695;53.480;-6.300;2023-02-04T03:09:38;102766.59;;;12.06;62.28
61537;BME280;48695;53.480;-6.300;2023-02-04T03:12:04;102761.38;;;12.06;62.04
61537;BME280;48695;53.480;-6.300;2023-02-04T03:14:30;102729.91;;;11.88;62.23
61537;BME280;48695;53.480;-6.300;2023-02-04T03:16:56;102764.88;;;12.05;62.37
61537;BME280;48695;53.480;-6.300;2023-02-04T03:19:23;102759.63;;;12.05;61.83
61537;BME280;48695;53.480;-6.300;2023-02-04T03:21:50;102764.88;;;12.04;61.97
61537;BME280;48695;53.480;-6.300;2023-02-04T03:24:15;102735.13;;;11.91;62.25
61537;BME280;48695;53.480;-6.300;2023-02-04T03:26:41;102746.53;;;11.98;62.36
61537;BME280;48695;53.480;-6.300;2023-02-04T03:29:09;102752.66;;;12.03;62.15
61537;BME280;48695;53.480;-6.300;2023-02-04T03:31:35;102743.91;;;11.98;61.70
61537;BME280;48695;53.480;-6.300;2023-02-04T03:34:02;102749.13;;;11.99;61.78
61537;BME280;48695;53.480;-6.300;2023-02-04T03:36:28;102750.00;;;12.00;61.88
61537;BME280;48695;53.480;-6.300;2023-02-04T03:38:53;102754.38;;;11.98;61.84
61537;BME280;48695;53.480;-6.300;2023-02-04T03:41:18;102767.47;;;11.98;61.55
61537;BME280;48695;53.480;-6.300;2023-02-04T03:43:44;102748.22;;;11.88;61.53
61537;BME280;48695;53.480;-6.300;2023-02-04T03:46:09;102750.84;;;11.89;61.65
61537;BME280;48695;53.480;-6.300;2023-02-04T03:48:35;102748.25;;;11.94;61.67
61537;BME280;48695;53.480;-6.300;2023-02-04T03:51:00;102756.09;;;11.94;61.43
61537;BME280;48695;53.480;-6.300;2023-02-04T03:53:25;102763.06;;;11.95;61.71
61537;BME280;48695;53.480;-6.300;2023-02-04T03:55:51;102756.97;;;11.94;61.63
61537;BME280;48695;53.480;-6.300;2023-02-04T03:58:16;102756.97;;;11.94;61.26
61537;BME280;48695;53.480;-6.300;2023-02-04T04:00:42;102761.34;;;11.94;61.50
61537;BME280;48695;53.480;-6.300;2023-02-04T04:03:07;102740.28;;;11.79;61.13
61537;BME280;48695;53.480;-6.300;2023-02-04T04:05:33;102756.09;;;11.94;61.29
61537;BME280;48695;53.480;-6.300;2023-02-04T04:07:58;102763.94;;;11.92;61.02
61537;BME280;48695;53.480;-6.300;2023-02-04T04:10:24;102755.22;;;11.92;60.78
61537;BME280;48695;53.480;-6.300;2023-02-04T04:12:49;102743.84;;;11.90;60.53
61537;BME280;48695;53.480;-6.300;2023-02-04T04:15:15;102750.84;;;11.91;60.70
61537;BME280;48695;53.480;-6.300;2023-02-04T04:17:40;102729.88;;;11.82;60.83
61537;BME280;48695;53.480;-6.300;2023-02-04T04:20:06;102737.75;;;11.88;61.04
61537;BME280;48695;53.480;-6.300;2023-02-04T04:22:31;102745.59;;;11.88;61.05
61537;BME280;48695;53.480;-6.300;2023-02-04T04:24:58;102707.06;;;11.65;60.79
61537;BME280;48695;53.480;-6.300;2023-02-04T04:27:23;102743.84;;;11.87;60.25
61537;BME280;48695;53.480;-6.300;2023-02-04T04:29:50;102738.63;;;11.87;61.38
61537;BME280;48695;53.480;-6.300;2023-02-04T04:32:15;102728.06;;;11.81;60.77
61537;BME280;48695;53.480;-6.300;2023-02-04T04:34:41;102735.09;;;11.85;60.48
61537;BME280;48695;53.480;-6.300;2023-02-04T04:37:06;102740.34;;;11.82;60.88
61537;BME280;48695;53.480;-6.300;2023-02-04T04:39:31;102739.44;;;11.81;60.60
61537;BME280;48695;53.480;-6.300;2023-02-04T04:41:57;102728.91;;;11.75;60.01
61537;BME280;48695;53.480;-6.300;2023-02-04T04:44:22;102742.03;;;11.80;59.90
61537;BME280;48695;53.480;-6.300;2023-02-04T04:46:48;102736.78;;;11.78;60.31
61537;BME280;48695;53.480;-6.300;2023-02-04T04:49:13;102745.50;;;11.80;60.28
61537;BME280;48695;53.480;-6.300;2023-02-04T04:51:39;102751.63;;;11.79;60.51
61537;BME280;48695;53.480;-6.300;2023-02-04T04:54:04;102716.66;;;11.65;59.89
61537;BME280;48695;53.480;-6.300;2023-02-04T04:56:29;102743.75;;;11.75;60.37
61537;BME280;48695;53.480;-6.300;2023-02-04T04:58:55;102740.25;;;11.74;60.35
61537;BME280;48695;53.480;-6.300;2023-02-04T05:01:20;102749.84;;;11.74;59.89
61537;BME280;48695;53.480;-6.300;2023-02-04T05:03:47;102750.72;;;11.73;60.12
61537;BME280;48695;53.480;-6.300;2023-02-04T05:06:12;102748.09;;;11.73;60.44
61537;BME280;48695;53.480;-6.300;2023-02-04T05:08:37;102750.72;;;11.76;59.94
61537;BME280;48695;53.480;-6.300;2023-02-04T05:11:03;102760.31;;;11.75;59.98
61537;BME280;48695;53.480;-6.300;2023-02-04T05:13:29;102761.19;;;11.76;60.27
61537;BME280;48695;53.480;-6.300;2023-02-04T05:15:54;102763.81;;;11.76;60.41
61537;BME280;48695;53.480;-6.300;2023-02-04T05:18:20;102757.69;;;11.74;60.28
61537;BME280;48695;53.480;-6.300;2023-02-04T05:20:45;102763.81;;;11.76;60.37
61537;BME280;48695;53.480;-6.300;2023-02-04T05:23:11;102761.19;;;11.71;60.41
61537;BME280;48695;53.480;-6.300;2023-02-04T05:25:36;102761.19;;;11.76;59.98
61537;BME280;48695;53.480;-6.300;2023-02-04T05:28:02;102770.78;;;11.72;60.12
61537;BME280;48695;53.480;-6.300;2023-02-04T05:30:27;102746.31;;;11.64;60.37
61537;BME280;48695;53.480;-6.300;2023-02-04T05:32:52;102755.94;;;11.68;60.16
61537;BME280;48695;53.480;-6.300;2023-02-04T05:35:18;102771.66;;;11.76;60.22
61537;BME280;48695;53.480;-6.300;2023-02-04T05:37:43;102743.69;;;11.62;60.11
61537;BME280;48695;53.480;-6.300;2023-02-04T05:40:09;102769.94;;;11.78;60.07
61537;BME280;48695;53.480;-6.300;2023-02-04T05:42:35;102694.72;;;11.40;60.28
61537;BME280;48695;53.480;-6.300;2023-02-04T05:45:00;102762.97;;;11.77;59.89
61537;BME280;48695;53.480;-6.300;2023-02-04T05:47:25;102741.97;;;11.67;60.28
61537;BME280;48695;53.480;-6.300;2023-02-04T05:49:51;102755.09;;;11.75;60.09
61537;BME280;48695;53.480;-6.300;2023-02-04T05:52:16;102753.34;;;11.76;60.12
61537;BME280;48695;53.480;-6.300;2023-02-04T05:54:42;102734.94;;;11.60;60.07
61537;BME280;48695;53.480;-6.300;2023-02-04T05:57:07;102747.22;;;11.74;60.21
61537;BME280;48695;53.480;-6.300;2023-02-04T05:59:32;102740.22;;;11.69;59.85
61537;BME280;48695;53.480;-6.300;2023-02-04T06:01:58;102733.22;;;11.65;59.75
61537;BME280;48695;53.480;-6.300;2023-02-04T06:04:23;102746.38;;;11.75;59.96
61537;BME280;48695;53.480;-6.300;2023-02-04T06:06:49;102747.25;;;11.77;59.70
61537;BME280;48695;53.480;-6.300;2023-02-04T06:09:14;102743.75;;;11.75;60.10
61537;BME280;48695;53.480;-6.300;2023-02-04T06:11:39;102751.59;;;11.75;59.71
61537;BME280;48695;53.480;-6.300;2023-02-04T06:14:05;102744.63;;;11.74;59.99
61537;BME280;48695;53.480;-6.300;2023-02-04T06:16:31;102752.47;;;11.74;60.06
61537;BME280;48695;53.480;-6.300;2023-02-04T06:18:56;102750.72;;;11.73;59.85
61537;BME280;48695;53.480;-6.300;2023-02-04T06:21:22;102759.44;;;11.75;59.73
61537;BME280;48695;53.480;-6.300;2023-02-04T06:23:47;102754.22;;;11.75;60.24
61537;BME280;48695;53.480;-6.300;2023-02-04T06:26:12;102752.47;;;11.74;59.81
61537;BME280;48695;53.480;-6.300;2023-02-04T06:28:38;102748.09;;;11.74;60.06
61537;BME280;48695;53.480;-6.300;2023-02-04T06:31:03;102738.50;;;11.68;60.04
61537;BME280;48695;53.480;-6.300;2023-02-04T06:33:29;102740.25;;;11.74;60.11
61537;BME280;48695;53.480;-6.300;2023-02-04T06:35:54;102742.00;;;11.74;60.19
61537;BME280;48695;53.480;-6.300;2023-02-04T06:38:20;102733.22;;;11.65;60.21
61537;BME280;48695;53.480;-6.300;2023-02-04T06:40:45;102733.25;;;11.68;59.80
61537;BME280;48695;53.480;-6.300;2023-02-04T06:43:17;102741.97;;;11.67;60.40
61537;BME280;48695;53.480;-6.300;2023-02-04T06:45:43;102757.69;;;11.74;60.16
61537;BME280;48695;53.480;-6.300;2023-02-04T06:48:08;102739.31;;;11.63;60.06
61537;BME280;48695;53.480;-6.300;2023-02-04T06:50:33;102748.97;;;11.72;60.24
61537;BME280;48695;53.480;-6.300;2023-02-04T06:52:59;102748.09;;;11.73;60.03
61537;BME280;48695;53.480;-6.300;2023-02-04T06:55:24;102747.22;;;11.70;60.21
61537;BME280;48695;53.480;-6.300;2023-02-04T06:57:50;102743.69;;;11.65;60.30
61537;BME280;48695;53.480;-6.300;2023-02-04T07:00:15;102755.06;;;11.70;60.21
61537;BME280;48695;53.480;-6.300;2023-02-04T07:02:40;102745.47;;;11.69;60.35
61537;BME280;48695;53.480;-6.300;2023-02-04T07:05:07;102749.84;;;11.72;60.33
61537;BME280;48695;53.480;-6.300;2023-02-04T07:07:33;102741.94;;;11.64;60.24
61537;BME280;48695;53.480;-6.300;2023-02-04T07:09:58;102722.69;;;11.53;60.17
61537;BME280;48695;53.480;-6.300;2023-02-04T07:12:24;102739.34;;;11.69;60.48
61537;BME280;48695;53.480;-6.300;2023-02-04T07:14:50;102747.22;;;11.70;60.31
61537;BME280;48695;53.480;-6.300;2023-02-04T07:17:15;102726.22;;;11.58;60.03
61537;BME280;48695;53.480;-6.300;2023-02-04T07:19:40;102747.22;;;11.70;60.40
61537;BME280;48695;53.480;-6.300;2023-02-04T07:22:06;102728.84;;;11.58;60.29
61537;BME280;48695;53.480;-6.300;2023-02-04T07:24:31;102735.00;;;11.69;60.59
61537;BME280;48695;53.480;-6.300;2023-02-04T07:26:57;102717.50;;;11.59;60.73
61537;BME280;48695;53.480;-6.300;2023-02-04T07:29:22;102731.50;;;11.70;60.42
61537;BME280;48695;53.480;-6.300;2023-02-04T07:31:48;102738.50;;;11.72;60.59
61537;BME280;48695;53.480;-6.300;2023-02-04T07:34:15;102743.78;;;11.78;61.20
61537;BME280;48695;53.480;-6.300;2023-02-04T07:36:41;102741.97;;;11.67;60.75
61537;BME280;48695;53.480;-6.300;2023-02-04T07:39:06;102720.97;;;11.58;60.35
61537;BME280;48695;53.480;-6.300;2023-02-04T07:41:32;102736.75;;;11.70;60.34
61537;BME280;48695;53.480;-6.300;2023-02-04T07:43:58;102741.97;;;11.70;60.32
61537;BME280;48695;53.480;-6.300;2023-02-04T07:46:23;102743.72;;;11.68;60.85
61537;BME280;48695;53.480;-6.300;2023-02-04T07:48:49;102728.88;;;11.63;60.81
61537;BME280;48695;53.480;-6.300;2023-02-04T07:51:14;102735.84;;;11.61;60.56
61537;BME280;48695;53.480;-6.300;2023-02-04T07:53:40;102744.59;;;11.67;60.57
61537;BME280;48695;53.480;-6.300;2023-02-04T07:56:05;102743.69;;;11.65;60.77
61537;BME280;48695;53.480;-6.300;2023-02-04T07:58:31;102745.47;;;11.69;60.91
61537;BME280;48695;53.480;-6.300;2023-02-04T08:00:56;102738.47;;;11.64;60.92
61537;BME280;48695;53.480;-6.300;2023-02-04T08:03:22;102749.81;;;11.70;61.02
61537;BME280;48695;53.480;-6.300;2023-02-04T08:05:47;102752.41;;;11.64;60.84
61537;BME280;48695;53.480;-6.300;2023-02-04T08:08:13;102757.69;;;11.67;60.72
61537;BME280;48695;53.480;-6.300;2023-02-04T08:10:39;102767.31;;;11.72;60.82
61537;BME280;48695;53.480;-6.300;2023-02-04T08:13:04;102765.53;;;11.69;60.65
61537;BME280;48695;53.480;-6.300;2023-02-04T08:15:30;102740.19;;;11.57;61.02
61537;BME280;48695;53.480;-6.300;2023-02-04T08:17:55;102775.16;;;11.73;60.83
61537;BME280;48695;53.480;-6.300;2023-02-04T08:20:21;102773.41;;;11.74;60.75
61537;BME280;48695;53.480;-6.300;2023-02-04T08:22:46;102774.28;;;11.74;60.53
61537;BME280;48695;53.480;-6.300;2023-02-04T08:25:12;102775.16;;;11.75;60.74
61537;BME280;48695;53.480;-6.300;2023-02-04T08:27:38;102780.38;;;11.75;60.86
61537;BME280;48695;53.480;-6.300;2023-02-04T08:30:04;102770.78;;;11.74;60.85
61537;BME280;48695;53.480;-6.300;2023-02-04T08:32:29;102748.94;;;11.62;60.91
61537;BME280;48695;53.480;-6.300;2023-02-04T08:34:58;102748.06;;;11.63;61.22
61537;BME280;48695;53.480;-6.300;2023-02-04T08:37:24;102767.31;;;11.75;60.78
61537;BME280;48695;53.480;-6.300;2023-02-04T08:39:49;102758.56;;;11.68;60.93
61537;BME280;48695;53.480;-6.300;2023-02-04T08:42:15;102776.91;;;11.76;60.86
61537;BME280;48695;53.480;-6.300;2023-02-04T08:44:41;102779.50;;;11.76;60.99
61537;BME280;48695;53.480;-6.300;2023-02-04T08:47:07;102773.41;;;11.74;60.88
61537;BME280;48695;53.480;-6.300;2023-02-04T08:49:34;102786.53;;;11.77;60.83
61537;BME280;48695;53.480;-6.300;2023-02-04T08:51:59;102778.66;;;11.78;60.94
61537;BME280;48695;53.480;-6.300;2023-02-04T08:54:27;102785.66;;;11.78;61.21
61537;BME280;48695;53.480;-6.300;2023-02-04T08:56:52;102792.63;;;11.79;60.95
61537;BME280;48695;53.480;-6.300;2023-02-04T08:59:18;102789.13;;;11.80;61.06
61537;BME280;48695;53.480;-6.300;2023-02-04T09:01:43;102802.28;;;11.83;61.19
61537;BME280;48695;53.480;-6.300;2023-02-04T09:04:13;102790.00;;;11.79;61.21
61537;BME280;48695;53.480;-6.300;2023-02-04T09:06:38;102809.28;;;11.84;61.39
61537;BME280;48695;53.480;-6.300;2023-02-04T09:09:04;102808.41;;;11.82;61.32
61537;BME280;48695;53.480;-6.300;2023-02-04T09:11:29;102810.13;;;11.81;61.88
61537;BME280;48695;53.480;-6.300;2023-02-04T09:13:54;102809.28;;;11.84;62.20
61537;BME280;48695;53.480;-6.300;2023-02-04T09:16:21;102806.59;;;11.81;62.19
61537;BME280;48695;53.480;-6.300;2023-02-04T09:18:47;102809.22;;;11.76;62.17
61537;BME280;48695;53.480;-6.300;2023-02-04T09:21:12;102830.22;;;11.84;62.34
61537;BME280;48695;53.480;-6.300;2023-02-04T09:23:37;102812.66;;;11.75;62.36
61537;BME280;48695;53.480;-6.300;2023-02-04T09:26:03;102804.78;;;11.70;62.84
61537;BME280;48695;53.480;-6.300;2023-02-04T09:28:30;102804.84;;;11.80;62.96
61537;BME280;48695;53.480;-6.300;2023-02-04T09:30:56;102802.25;;;11.81;62.76
61537;BME280;48695;53.480;-6.300;2023-02-04T09:33:22;102789.13;;;11.74;62.97
61537;BME280;48695;53.480;-6.300;2023-02-04T09:35:47;102790.84;;;11.72;62.83
61537;BME280;48695;53.480;-6.300;2023-02-04T09:38:13;102800.50;;;11.80;62.88
61537;BME280;48695;53.480;-6.300;2023-02-04T09:40:45;102816.25;;;11.85;63.24
61537;BME280;48695;53.480;-6.300;2023-02-04T09:43:16;102817.13;;;11.84;63.26
61537;BME280;48695;53.480;-6.300;2023-02-04T09:45:42;102805.72;;;11.80;63.46
61537;BME280;48695;53.480;-6.300;2023-02-04T09:48:10;102802.22;;;11.78;63.50
61537;BME280;48695;53.480;-6.300;2023-02-04T09:50:37;102819.75;;;11.84;63.34
61537;BME280;48695;53.480;-6.300;2023-02-04T09:53:04;102816.25;;;11.85;63.23
61537;BME280;48695;53.480;-6.300;2023-02-04T09:55:36;102815.38;;;11.86;63.05
61537;BME280;48695;53.480;-6.300;2023-02-04T09:58:07;102801.34;;;11.81;62.95
61537;BME280;48695;53.480;-6.300;2023-02-04T10:00:36;102814.50;;;11.84;63.13
61537;BME280;48695;53.480;-6.300;2023-02-04T10:03:01;102804.91;;;11.86;62.82
61537;BME280;48695;53.480;-6.300;2023-02-04T10:05:31;102810.19;;;11.89;62.78
61537;BME280;48695;53.480;-6.300;2023-02-04T10:07:58;102788.28;;;11.78;63.16
61537;BME280;48695;53.480;-6.300;2023-02-04T10:10:24;102808.44;;;11.91;62.71
61537;BME280;48695;53.480;-6.300;2023-02-04T10:12:52;102808.50;;;11.97;62.63
61537;BME280;48695;53.480;-6.300;2023-02-04T10:15:19;102802.34;;;11.95;62.85
61537;BME280;48695;53.480;-6.300;2023-02-04T10:17:47;102808.50;;;11.97;62.94
61537;BME280;48695;53.480;-6.300;2023-02-04T10:20:19;102819.81;;;12.01;62.57
61537;BME280;48695;53.480;-6.300;2023-02-04T10:22:46;102818.97;;;12.00;62.40
61537;BME280;48695;53.480;-6.300;2023-02-04T10:25:13;102829.47;;;12.03;62.59
61537;BME280;48695;53.480;-6.300;2023-02-04T10:28:05;102799.72;;;11.95;62.51
61537;BME280;48695;53.480;-6.300;2023-02-04T10:30:38;102821.59;;;12.05;62.47
61537;BME280;48695;53.480;-6.300;2023-02-04T10:33:33;102831.22;;;12.10;62.96
61537;BME280;48695;53.480;-6.300;2023-02-04T10:36:01;102831.25;;;12.13;62.53
61537;BME280;48695;53.480;-6.300;2023-02-04T10:38:27;102833.88;;;12.12;62.56
61537;BME280;48695;53.480;-6.300;2023-02-04T10:41:03;102838.25;;;12.14;62.74
61537;BME280;48695;53.480;-6.300;2023-02-04T10:43:30;102837.38;;;12.15;62.63
61537;BME280;48695;53.480;-6.300;2023-02-04T10:46:01;102853.97;;;12.19;62.71
61537;BME280;48695;53.480;-6.300;2023-02-04T10:48:27;102826.88;;;12.09;63.09
61537;BME280;48695;53.480;-6.300;2023-02-04T10:50:55;102829.50;;;12.12;63.14
61537;BME280;48695;53.480;-6.300;2023-02-04T10:53:22;102829.50;;;12.15;63.13
61537;BME280;48695;53.480;-6.300;2023-02-04T10:56:17;102819.03;;;12.15;62.99
61537;BME280;48695;53.480;-6.300;2023-02-04T10:58:44;102847.06;;;12.29;63.04
61537;BME280;48695;53.480;-6.300;2023-02-04T11:01:14;102848.81;;;12.33;63.04
61537;BME280;48695;53.480;-6.300;2023-02-04T11:03:41;102841.81;;;12.35;63.49
61537;BME280;48695;53.480;-6.300;2023-02-04T11:06:12;102826.13;;;12.38;63.16
61537;BME280;48695;53.480;-6.300;2023-02-04T11:08:38;102797.22;;;12.19;63.29
61537;BME280;48695;53.480;-6.300;2023-02-04T11:11:07;102774.50;;;12.09;63.26
61537;BME280;48695;53.480;-6.300;2023-02-04T11:16:46;102855.06;;;12.62;63.02
61537;BME280;48695;53.480;-6.300;2023-02-04T11:19:12;102844.56;;;12.62;63.06
61537;BME280;48695;53.480;-6.300;2023-02-04T11:21:44;102828.81;;;12.67;62.81
61537;BME280;48695;53.480;-6.300;2023-02-04T11:29:33;102847.25;;;12.84;62.41
61537;BME280;48695;53.480;-6.300;2023-02-04T11:32:26;102841.13;;;12.89;62.61
61537;BME280;48695;53.480;-6.300;2023-02-04T11:34:50;102845.50;;;12.89;62.45
61537;BME280;48695;53.480;-6.300;2023-02-04T11:39:47;102834.16;;;12.88;62.34
61537;BME280;48695;53.480;-6.300;2023-02-04T11:42:40;102835.03;;;13.01;62.62
61537;BME280;48695;53.480;-6.300;2023-02-04T11:45:29;102838.53;;;13.06;62.44
61537;BME280;48695;53.480;-6.300;2023-02-04T11:48:00;102841.16;;;13.12;62.13
61537;BME280;48695;53.480;-6.300;2023-02-04T11:50:27;102838.53;;;13.15;61.88
61537;BME280;48695;53.480;-6.300;2023-02-04T11:52:55;102834.22;;;13.23;62.24
61537;BME280;48695;53.480;-6.300;2023-02-04T11:55:21;102834.22;;;13.28;61.42
61537;BME280;48695;53.480;-6.300;2023-02-04T11:57:51;102823.72;;;13.31;61.93
61537;BME280;48695;53.480;-6.300;2023-02-04T12:00:29;102826.34;;;13.36;61.74
61537;BME280;48695;53.480;-6.300;2023-02-04T12:02:56;102817.56;;;13.47;62.43
61537;BME280;48695;53.480;-6.300;2023-02-04T12:05:34;102806.19;;;13.47;61.60
61537;BME280;48695;53.480;-6.300;2023-02-04T12:08:08;102810.59;;;13.59;61.34
61537;BME280;48695;53.480;-6.300;2023-02-04T12:10:34;102836.81;;;13.66;60.44
61537;BME280;48695;53.480;-6.300;2023-02-04T12:12:59;102814.03;;;13.68;60.71
61537;BME280;48695;53.480;-6.300;2023-02-04T12:15:33;102810.56;;;13.69;60.73
61537;BME280;48695;53.480;-6.300;2023-02-04T12:18:09;102807.88;;;13.82;61.32
61537;BME280;48695;53.480;-6.300;2023-02-04T12:20:41;102803.50;;;13.87;60.70
61537;BME280;48695;53.480;-6.300;2023-02-04T12:23:06;102804.34;;;13.92;60.79
61537;BME280;48695;53.480;-6.300;2023-02-04T12:25:33;102788.59;;;13.92;60.84
61537;BME280;48695;53.480;-6.300;2023-02-04T12:27:58;102801.72;;;14.04;60.42
61537;BME280;48695;53.480;-6.300;2023-02-04T12:30:26;102804.28;;;14.09;59.88
61537;BME280;48695;53.480;-6.300;2023-02-04T12:32:52;102772.84;;;13.92;60.15
61537;BME280;48695;53.480;-6.300;2023-02-04T12:35:17;102818.28;;;14.17;59.68
61537;BME280;48695;53.480;-6.300;2023-02-04T12:37:43;102805.19;;;14.08;59.68
61537;BME280;48695;53.480;-6.300;2023-02-04T12:40:14;102820.91;;;14.21;60.06
61537;BME280;48695;53.480;-6.300;2023-02-04T12:42:40;102817.38;;;14.22;59.92
61537;BME280;48695;53.480;-6.300;2023-02-04T12:45:05;102818.22;;;14.29;60.24
61537;BME280;48695;53.480;-6.300;2023-02-04T12:47:31;102813.81;;;14.42;60.56
61537;BME280;48695;53.480;-6.300;2023-02-04T12:49:56;102818.09;;;14.63;59.86